sensor_id;sensor_type;location;lat;lon;timestamp;pressure;altitude;pressure_sealevel;temperature;humidity
4576;BME280;2300;51.874;8.430;2023-06-22T00:00:58;100992.25;;;19.41;89.46
4576;BME280;2300;51.874;8.430;2023-06-22T00:03:26;100986.94;;;19.45;89.46
4576;BME280;2300;51.874;8.430;2023-06-22T00:05:54;100982.47;;;19.44;89.42
4576;BME280;2300;51.874;8.430;2023-06-22T00:08:21;100983.91;;;19.36;90.47
4576;BME280;2300;51.874;8.430;2023-06-22T00:10:48;100979.44;;;19.35;91.44
4576;BME280;2300;51.874;8.430;2023-06-22T00:13:15;100981.09;;;19.41;91.77
4576;BME280;2300;51.874;8.430;2023-06-22T00:15:42;100971.09;;;19.35;92.65
4576;BME280;2300;51.874;8.430;2023-06-22T00:18:10;100984.41;;;19.43;91.71
4576;BME280;2300;51.874;8.430;2023-06-22T00:20:38;100982.44;;;19.49;90.51
4576;BME280;2300;51.874;8.430;2023-06-22T00:23:07;100967.72;;;19.38;92.02
4576;BME280;2300;51.874;8.430;2023-06-22T00:25:34;100975.78;;;19.45;91.71
4576;BME280;2300;51.874;8.430;2023-06-22T00:28:01;100979.97;;;19.47;91.76
4576;BME280;2300;51.874;8.430;2023-06-22T00:30:28;100973.59;;;19.37;92.48
4576;BME280;2300;51.874;8.430;2023-06-22T00:32:55;100972.13;;;19.54;91.70
4576;BME280;2300;51.874;8.430;2023-06-22T00:35:21;100961.00;;;19.49;92.06
4576;BME280;2300;51.874;8.430;2023-06-22T00:37:48;100964.31;;;19.61;91.18
4576;BME280;2300;51.874;8.430;2023-06-22T00:40:16;100957.06;;;19.60;91.03
4576;BME280;2300;51.874;8.430;2023-06-22T00:42:46;100946.75;;;19.61;90.81
4576;BME280;2300;51.874;8.430;2023-06-22T00:45:13;100942.41;;;19.35;92.25
4576;BME280;2300;51.874;8.430;2023-06-22T00:47:40;100937.78;;;19.15;94.19
4576;BME280;2300;51.874;8.430;2023-06-22T00:50:12;100942.22;;;19.16;94.75
4576;BME280;2300;51.874;8.430;2023-06-22T00:52:43;100947.47;;;19.27;94.45
4576;BME280;2300;51.874;8.430;2023-06-22T00:55:11;100948.53;;;19.42;94.61
4576;BME280;2300;51.874;8.430;2023-06-22T00:57:39;100938.19;;;19.47;93.47
4576;BME280;2300;51.874;8.430;2023-06-22T01:00:07;100944.84;;;19.51;92.65
4576;BME280;2300;51.874;8.430;2023-06-22T01:02:37;100941.53;;;19.44;93.44
4576;BME280;2300;51.874;8.430;2023-06-22T01:05:04;100947.69;;;19.41;93.93
4576;BME280;2300;51.874;8.430;2023-06-22T01:07:35;100950.97;;;19.53;92.91
4576;BME280;2300;51.874;8.430;2023-06-22T01:10:08;100944.28;;;19.49;94.36
4576;BME280;2300;51.874;8.430;2023-06-22T01:12:45;100948.78;;;19.45;93.93
4576;BME280;2300;51.874;8.430;2023-06-22T01:15:22;100936.84;;;19.35;94.25
4576;BME280;2300;51.874;8.430;2023-06-22T01:17:52;100947.91;;;19.50;93.46
4576;BME280;2300;51.874;8.430;2023-06-22T01:20:20;100949.34;;;19.47;93.33
4576;BME280;2300;51.874;8.430;2023-06-22T01:23:01;100943.84;;;19.32;94.97
4576;BME280;2300;51.874;8.430;2023-06-22T01:25:36;100941.59;;;19.34;94.58
4576;BME280;2300;51.874;8.430;2023-06-22T01:28:20;100939.09;;;19.33;94.41
4576;BME280;2300;51.874;8.430;2023-06-22T01:30:51;100935.00;;;19.10;96.65
4576;BME280;2300;51.874;8.430;2023-06-22T01:33:29;100944.16;;;19.15;97.22
4576;BME280;2300;51.874;8.430;2023-06-22T01:35:56;100939.94;;;19.23;96.90
4576;BME280;2300;51.874;8.430;2023-06-22T01:38:23;100939.69;;;19.19;96.87
4576;BME280;2300;51.874;8.430;2023-06-22T01:40:49;100939.16;;;19.22;96.44
4576;BME280;2300;51.874;8.430;2023-06-22T01:43:17;100942.75;;;19.23;95.91
4576;BME280;2300;51.874;8.430;2023-06-22T01:45:44;100940.28;;;19.16;96.33
4576;BME280;2300;51.874;8.430;2023-06-22T01:48:12;100948.59;;;19.21;95.82
4576;BME280;2300;51.874;8.430;2023-06-22T01:50:39;100924.41;;;19.17;95.44
4576;BME280;2300;51.874;8.430;2023-06-22T01:53:07;100934.38;;;19.23;95.97
4576;BME280;2300;51.874;8.430;2023-06-22T01:55:33;100934.72;;;19.11;96.37
4576;BME280;2300;51.874;8.430;2023-06-22T01:58:00;100939.69;;;19.19;96.46
4576;BME280;2300;51.874;8.430;2023-06-22T02:00:28;100944.97;;;19.26;95.64
4576;BME280;2300;51.874;8.430;2023-06-22T02:03:01;100941.06;;;19.27;95.88
4576;BME280;2300;51.874;8.430;2023-06-22T02:05:34;100942.47;;;19.24;95.66
4576;BME280;2300;51.874;8.430;2023-06-22T02:08:07;100942.78;;;19.13;96.83
4576;BME280;2300;51.874;8.430;2023-06-22T02:10:36;100953.88;;;19.18;97.06
4576;BME280;2300;51.874;8.430;2023-06-22T02:13:06;100946.91;;;19.25;96.74
4576;BME280;2300;51.874;8.430;2023-06-22T02:15:34;100948.28;;;19.28;96.05
4576;BME280;2300;51.874;8.430;2023-06-22T02:18:01;100949.97;;;19.29;96.21
4576;BME280;2300;51.874;8.430;2023-06-22T02:20:28;100944.94;;;19.31;95.59
4576;BME280;2300;51.874;8.430;2023-06-22T02:22:56;100950.50;;;19.36;95.40
4576;BME280;2300;51.874;8.430;2023-06-22T02:25:22;100949.09;;;19.34;96.06
4576;BME280;2300;51.874;8.430;2023-06-22T02:27:49;100955.78;;;19.38;95.88
4576;BME280;2300;51.874;8.430;2023-06-22T02:30:15;100954.44;;;19.25;96.24
4576;BME280;2300;51.874;8.430;2023-06-22T02:32:42;100963.91;;;19.24;96.46
4576;BME280;2300;51.874;8.430;2023-06-22T02:35:09;100955.25;;;19.31;95.53
4576;BME280;2300;51.874;8.430;2023-06-22T02:37:36;100963.34;;;19.27;95.71
4576;BME280;2300;51.874;8.430;2023-06-22T02:40:06;100954.13;;;19.32;95.21
4576;BME280;2300;51.874;8.430;2023-06-22T02:42:34;100951.06;;;19.28;95.61
4576;BME280;2300;51.874;8.430;2023-06-22T02:45:00;100957.19;;;19.30;95.50
4576;BME280;2300;51.874;8.430;2023-06-22T02:47:27;100947.72;;;19.31;94.95
4576;BME280;2300;51.874;8.430;2023-06-22T02:49:53;100949.13;;;19.28;94.86
4576;BME280;2300;51.874;8.430;2023-06-22T02:52:20;100951.38;;;19.21;95.47
4576;BME280;2300;51.874;8.430;2023-06-22T02:54:46;100950.59;;;19.06;97.52
4576;BME280;2300;51.874;8.430;2023-06-22T02:57:14;100948.06;;;19.14;98.48
4576;BME280;2300;51.874;8.430;2023-06-22T02:59:41;100953.34;;;19.21;97.06
4576;BME280;2300;51.874;8.430;2023-06-22T03:02:08;100948.88;;;19.20;97.73
4576;BME280;2300;51.874;8.430;2023-06-22T03:04:34;100953.06;;;19.17;96.66
4576;BME280;2300;51.874;8.430;2023-06-22T03:07:01;100928.66;;;18.89;97.48
4576;BME280;2300;51.874;8.430;2023-06-22T03:09:28;100945.03;;;19.11;98.72
4576;BME280;2300;51.874;8.430;2023-06-22T03:11:55;100945.00;;;19.16;97.23
4576;BME280;2300;51.874;8.430;2023-06-22T03:14:23;100943.91;;;19.12;98.42
4576;BME280;2300;51.874;8.430;2023-06-22T03:16:49;100940.56;;;19.15;96.95
4576;BME280;2300;51.874;8.430;2023-06-22T03:19:16;100942.25;;;19.11;96.60
4576;BME280;2300;51.874;8.430;2023-06-22T03:21:42;100933.59;;;19.12;96.14
4576;BME280;2300;51.874;8.430;2023-06-22T03:24:10;100927.19;;;19.17;95.98
4576;BME280;2300;51.874;8.430;2023-06-22T03:26:36;100926.91;;;19.13;96.47
4576;BME280;2300;51.874;8.430;2023-06-22T03:29:03;100930.28;;;19.10;97.60
4576;BME280;2300;51.874;8.430;2023-06-22T03:31:31;100929.72;;;19.03;98.08
4576;BME280;2300;51.874;8.430;2023-06-22T03:33:57;100936.72;;;18.96;98.27
4576;BME280;2300;51.874;8.430;2023-06-22T03:36:24;100942.00;;;18.92;98.57
4576;BME280;2300;51.874;8.430;2023-06-22T03:38:51;100937.22;;;19.13;98.23
4576;BME280;2300;51.874;8.430;2023-06-22T03:41:18;100937.16;;;19.23;96.62
4576;BME280;2300;51.874;8.430;2023-06-22T03:43:44;100935.75;;;19.31;96.30
4576;BME280;2300;51.874;8.430;2023-06-22T03:46:11;100932.75;;;19.22;97.61
4576;BME280;2300;51.874;8.430;2023-06-22T03:48:39;100932.69;;;19.32;97.29
4576;BME280;2300;51.874;8.430;2023-06-22T03:51:05;100898.81;;;19.15;96.53
4576;BME280;2300;51.874;8.430;2023-06-22T03:53:32;100920.97;;;19.35;96.55
4576;BME280;2300;51.874;8.430;2023-06-22T03:55:58;100930.44;;;19.39;96.01
4576;BME280;2300;51.874;8.430;2023-06-22T03:58:25;100929.84;;;19.47;95.63
4576;BME280;2300;51.874;8.430;2023-06-22T04:00:52;100929.22;;;19.55;95.09
4576;BME280;2300;51.874;8.430;2023-06-22T04:03:19;100930.28;;;19.69;94.47
4576;BME280;2300;51.874;8.430;2023-06-22T04:05:47;100933.09;;;19.69;94.53
4576;BME280;2300;51.874;8.430;2023-06-22T04:08:14;100925.81;;;19.79;94.60
4576;BME280;2300;51.874;8.430;2023-06-22T04:10:40;100938.03;;;19.83;94.22
4576;BME280;2300;51.874;8.430;2023-06-22T04:13:07;100938.56;;;19.85;92.58
4576;BME280;2300;51.874;8.430;2023-06-22T04:15:34;100941.31;;;19.95;91.15
4576;BME280;2300;51.874;8.430;2023-06-22T04:18:00;100943.91;;;20.20;91.28
4576;BME280;2300;51.874;8.430;2023-06-22T04:20:27;100943.31;;;20.23;90.28
4576;BME280;2300;51.874;8.430;2023-06-22T04:22:55;100941.91;;;20.26;89.60
4576;BME280;2300;51.874;8.430;2023-06-22T04:25:22;100939.28;;;20.44;88.61
4576;BME280;2300;51.874;8.430;2023-06-22T04:27:48;100944.31;;;20.37;89.09
4576;BME280;2300;51.874;8.430;2023-06-22T04:30:15;100949.81;;;20.47;89.41
4576;BME280;2300;51.874;8.430;2023-06-22T04:32:42;100948.34;;;20.60;87.64
4576;BME280;2300;51.874;8.430;2023-06-22T04:35:09;100946.84;;;20.68;87.75
4576;BME280;2300;51.874;8.430;2023-06-22T04:37:35;100953.72;;;20.80;87.98
4576;BME280;2300;51.874;8.430;2023-06-22T04:40:05;100938.53;;;20.91;87.64
4576;BME280;2300;51.874;8.430;2023-06-22T04:42:34;100938.81;;;20.90;86.13
4576;BME280;2300;51.874;8.430;2023-06-22T04:45:00;100938.41;;;20.78;86.60
4576;BME280;2300;51.874;8.430;2023-06-22T04:47:27;100935.06;;;20.76;87.05
4576;BME280;2300;51.874;8.430;2023-06-22T04:49:53;100931.78;;;20.98;86.42
4576;BME280;2300;51.874;8.430;2023-06-22T04:52:20;100926.19;;;20.98;86.01
4576;BME280;2300;51.874;8.430;2023-06-22T04:54:46;100923.84;;;21.05;86.97
4576;BME280;2300;51.874;8.430;2023-06-22T04:57:17;100927.22;;;21.30;86.05
4576;BME280;2300;51.874;8.430;2023-06-22T04:59:43;100927.84;;;21.46;85.38
4576;BME280;2300;51.874;8.430;2023-06-22T05:02:10;100933.44;;;21.46;83.54
4576;BME280;2300;51.874;8.430;2023-06-22T05:04:36;100933.75;;;21.45;83.50
4576;BME280;2300;51.874;8.430;2023-06-22T05:07:04;100925.44;;;21.40;83.28
4576;BME280;2300;51.874;8.430;2023-06-22T05:09:31;100923.56;;;21.54;82.95
4576;BME280;2300;51.874;8.430;2023-06-22T05:11:59;100931.66;;;21.55;83.09
4576;BME280;2300;51.874;8.430;2023-06-22T05:14:28;100924.69;;;21.53;83.15
4576;BME280;2300;51.874;8.430;2023-06-22T05:16:55;100917.75;;;21.50;82.70
4576;BME280;2300;51.874;8.430;2023-06-22T05:19:23;100920.84;;;21.49;82.16
4576;BME280;2300;51.874;8.430;2023-06-22T05:21:50;100925.59;;;21.48;82.76
4576;BME280;2300;51.874;8.430;2023-06-22T05:24:16;100926.66;;;21.52;82.42
4576;BME280;2300;51.874;8.430;2023-06-22T05:26:43;100915.34;;;21.62;82.13
4576;BME280;2300;51.874;8.430;2023-06-22T05:29:09;100912.25;;;21.64;82.59
4576;BME280;2300;51.874;8.430;2023-06-22T05:31:37;100925.53;;;21.72;82.22
4576;BME280;2300;51.874;8.430;2023-06-22T05:34:05;100924.28;;;22.20;82.11
4576;BME280;2300;51.874;8.430;2023-06-22T05:36:32;100916.41;;;22.55;79.16
4576;BME280;2300;51.874;8.430;2023-06-22T05:38:58;100916.94;;;22.89;78.09
4576;BME280;2300;51.874;8.430;2023-06-22T05:41:25;100927.91;;;23.27;76.72
4576;BME280;2300;51.874;8.430;2023-06-22T05:43:51;100930.50;;;24.14;76.05
4576;BME280;2300;51.874;8.430;2023-06-22T05:46:18;100922.41;;;24.79;72.59
4576;BME280;2300;51.874;8.430;2023-06-22T05:48:47;100928.19;;;25.62;71.23
4576;BME280;2300;51.874;8.430;2023-06-22T05:51:13;100927.13;;;25.01;71.06
4576;BME280;2300;51.874;8.430;2023-06-22T05:53:40;100929.94;;;25.01;70.10
4576;BME280;2300;51.874;8.430;2023-06-22T05:56:06;100934.28;;;24.54;71.96
4576;BME280;2300;51.874;8.430;2023-06-22T05:58:32;100930.59;;;24.45;73.31
4576;BME280;2300;51.874;8.430;2023-06-22T06:00:59;100932.59;;;24.53;73.46
4576;BME280;2300;51.874;8.430;2023-06-22T06:03:26;100928.97;;;24.52;74.16
4576;BME280;2300;51.874;8.430;2023-06-22T06:05:55;100929.94;;;24.48;73.24
4576;BME280;2300;51.874;8.430;2023-06-22T06:08:22;100928.44;;;24.06;75.20
4576;BME280;2300;51.874;8.430;2023-06-22T06:10:48;100924.84;;;23.92;74.56
4576;BME280;2300;51.874;8.430;2023-06-22T06:13:15;100920.31;;;23.82;75.75
4576;BME280;2300;51.874;8.430;2023-06-22T06:15:41;100938.91;;;23.64;76.02
4576;BME280;2300;51.874;8.430;2023-06-22T06:18:08;100927.72;;;23.37;76.98
4576;BME280;2300;51.874;8.430;2023-06-22T06:20:34;100931.66;;;23.36;77.93
4576;BME280;2300;51.874;8.430;2023-06-22T06:23:02;100937.28;;;23.36;77.07
4576;BME280;2300;51.874;8.430;2023-06-22T06:25:29;100938.22;;;23.45;78.59
4576;BME280;2300;51.874;8.430;2023-06-22T06:27:55;100936.06;;;23.42;78.65
4576;BME280;2300;51.874;8.430;2023-06-22T06:30:22;100939.38;;;23.58;78.20
4576;BME280;2300;51.874;8.430;2023-06-22T06:32:49;100944.75;;;23.54;79.24
4576;BME280;2300;51.874;8.430;2023-06-22T06:35:16;100948.75;;;23.75;78.86
4576;BME280;2300;51.874;8.430;2023-06-22T06:37:44;100944.47;;;23.92;78.42
4576;BME280;2300;51.874;8.430;2023-06-22T06:40:13;100921.72;;;23.93;78.43
4576;BME280;2300;51.874;8.430;2023-06-22T06:42:41;100934.06;;;24.06;78.90
4576;BME280;2300;51.874;8.430;2023-06-22T06:45:10;100935.84;;;24.46;77.66
4576;BME280;2300;51.874;8.430;2023-06-22T06:47:36;100929.47;;;24.10;77.91
4576;BME280;2300;51.874;8.430;2023-06-22T06:50:04;100939.25;;;24.35;76.77
4576;BME280;2300;51.874;8.430;2023-06-22T06:52:31;100930.88;;;24.21;77.13
4576;BME280;2300;51.874;8.430;2023-06-22T06:54:57;100936.63;;;24.38;77.21
4576;BME280;2300;51.874;8.430;2023-06-22T06:57:26;100943.31;;;24.06;77.45
4576;BME280;2300;51.874;8.430;2023-06-22T06:59:54;100935.53;;;23.89;77.55
4576;BME280;2300;51.874;8.430;2023-06-22T07:02:20;100945.66;;;23.77;78.91
4576;BME280;2300;51.874;8.430;2023-06-22T07:04:47;100949.84;;;23.52;79.94
4576;BME280;2300;51.874;8.430;2023-06-22T07:07:14;100942.13;;;23.71;80.22
4576;BME280;2300;51.874;8.430;2023-06-22T07:09:40;100953.03;;;23.18;81.79
4576;BME280;2300;51.874;8.430;2023-06-22T07:12:07;100941.63;;;23.15;81.83
4576;BME280;2300;51.874;8.430;2023-06-22T07:14:35;100952.88;;;23.42;81.49
4576;BME280;2300;51.874;8.430;2023-06-22T07:17:02;100944.34;;;23.47;82.04
4576;BME280;2300;51.874;8.430;2023-06-22T07:19:29;100942.00;;;23.76;80.71
4576;BME280;2300;51.874;8.430;2023-06-22T07:21:56;100938.84;;;23.92;80.49
4576;BME280;2300;51.874;8.430;2023-06-22T07:24:24;100929.13;;;23.75;80.20
4576;BME280;2300;51.874;8.430;2023-06-22T07:26:51;100937.34;;;23.72;80.55
4576;BME280;2300;51.874;8.430;2023-06-22T07:29:17;100937.25;;;23.77;79.99
4576;BME280;2300;51.874;8.430;2023-06-22T07:31:47;100939.22;;;23.76;80.76
4576;BME280;2300;51.874;8.430;2023-06-22T07:34:15;100938.91;;;23.78;80.60
4576;BME280;2300;51.874;8.430;2023-06-22T07:36:42;100936.81;;;23.83;80.25
4576;BME280;2300;51.874;8.430;2023-06-22T07:39:09;100930.44;;;23.92;79.52
4576;BME280;2300;51.874;8.430;2023-06-22T07:41:37;100933.06;;;23.74;80.26
4576;BME280;2300;51.874;8.430;2023-06-22T07:44:03;100925.56;;;23.97;80.19
4576;BME280;2300;51.874;8.430;2023-06-22T07:46:31;100928.28;;;23.88;79.48
4576;BME280;2300;51.874;8.430;2023-06-22T07:48:59;100921.63;;;23.84;79.89
4576;BME280;2300;51.874;8.430;2023-06-22T07:51:26;100919.91;;;24.11;80.80
4576;BME280;2300;51.874;8.430;2023-06-22T07:53:53;100927.38;;;24.15;79.69
4576;BME280;2300;51.874;8.430;2023-06-22T07:56:19;100928.06;;;23.99;81.23
4576;BME280;2300;51.874;8.430;2023-06-22T07:58:46;100931.66;;;24.13;78.91
4576;BME280;2300;51.874;8.430;2023-06-22T08:01:13;100933.91;;;23.88;81.05
4576;BME280;2300;51.874;8.430;2023-06-22T08:03:40;100922.88;;;23.92;82.16
4576;BME280;2300;51.874;8.430;2023-06-22T08:06:09;100923.25;;;24.13;82.57
4576;BME280;2300;51.874;8.430;2023-06-22T08:08:35;100911.63;;;24.06;82.83
4576;BME280;2300;51.874;8.430;2023-06-22T08:11:02;100913.59;;;24.72;83.28
4576;BME280;2300;51.874;8.430;2023-06-22T08:13:28;100913.81;;;25.24;77.33
4576;BME280;2300;51.874;8.430;2023-06-22T08:15:55;100907.53;;;24.79;78.50
4576;BME280;2300;51.874;8.430;2023-06-22T08:18:21;100901.59;;;24.80;79.09
4576;BME280;2300;51.874;8.430;2023-06-22T08:20:48;100896.91;;;25.06;76.09
4576;BME280;2300;51.874;8.430;2023-06-22T08:23:16;100891.75;;;25.00;76.32
4576;BME280;2300;51.874;8.430;2023-06-22T08:25:42;100883.13;;;24.88;76.58
4576;BME280;2300;51.874;8.430;2023-06-22T08:28:09;100876.59;;;25.01;77.59
4576;BME280;2300;51.874;8.430;2023-06-22T08:30:35;100869.31;;;25.48;76.96
4576;BME280;2300;51.874;8.430;2023-06-22T08:33:02;100870.19;;;26.00;75.31
4576;BME280;2300;51.874;8.430;2023-06-22T08:35:28;100872.41;;;26.50;72.40
4576;BME280;2300;51.874;8.430;2023-06-22T08:37:55;100879.34;;;26.61;71.61
4576;BME280;2300;51.874;8.430;2023-06-22T08:40:23;100881.59;;;26.85;70.51
4576;BME280;2300;51.874;8.430;2023-06-22T08:42:50;100873.75;;;26.44;69.56
4576;BME280;2300;51.874;8.430;2023-06-22T08:45:17;100871.16;;;26.21;70.51
4576;BME280;2300;51.874;8.430;2023-06-22T08:47:43;100866.81;;;25.46;72.07
4576;BME280;2300;51.874;8.430;2023-06-22T08:50:10;100855.91;;;25.62;72.85
4576;BME280;2300;51.874;8.430;2023-06-22T08:52:38;100855.41;;;25.60;74.29
4576;BME280;2300;51.874;8.430;2023-06-22T08:55:07;100855.28;;;26.08;73.93
4576;BME280;2300;51.874;8.430;2023-06-22T08:57:35;100858.88;;;26.34;71.96
4576;BME280;2300;51.874;8.430;2023-06-22T09:00:05;100859.81;;;26.56;70.92
4576;BME280;2300;51.874;8.430;2023-06-22T09:02:40;100857.19;;;26.68;69.98
4576;BME280;2300;51.874;8.430;2023-06-22T09:05:07;100855.03;;;26.56;70.51
4576;BME280;2300;51.874;8.430;2023-06-22T09:07:34;100855.25;;;26.43;69.96
4576;BME280;2300;51.874;8.430;2023-06-22T09:10:00;100862.66;;;27.02;71.71
4576;BME280;2300;51.874;8.430;2023-06-22T09:12:28;100852.94;;;26.91;70.27
4576;BME280;2300;51.874;8.430;2023-06-22T09:14:57;100856.25;;;26.85;69.07
4576;BME280;2300;51.874;8.430;2023-06-22T09:17:25;100845.56;;;26.61;70.29
4576;BME280;2300;51.874;8.430;2023-06-22T09:19:51;100843.28;;;26.63;71.18
4576;BME280;2300;51.874;8.430;2023-06-22T09:22:18;100842.50;;;26.92;70.75
4576;BME280;2300;51.874;8.430;2023-06-22T09:24:44;100840.50;;;27.21;69.67
4576;BME280;2300;51.874;8.430;2023-06-22T09:27:11;100843.88;;;27.65;68.37
4576;BME280;2300;51.874;8.430;2023-06-22T09:29:37;100846.53;;;27.91;68.46
4576;BME280;2300;51.874;8.430;2023-06-22T09:32:06;100844.94;;;28.02;66.99
4576;BME280;2300;51.874;8.430;2023-06-22T09:34:33;100837.13;;;27.78;68.00
4576;BME280;2300;51.874;8.430;2023-06-22T09:36:59;100832.06;;;27.72;68.43
4576;BME280;2300;51.874;8.430;2023-06-22T09:39:26;100814.09;;;27.76;66.46
4576;BME280;2300;51.874;8.430;2023-06-22T09:41:52;100817.97;;;27.92;67.51
4576;BME280;2300;51.874;8.430;2023-06-22T09:44:19;100812.34;;;27.92;66.49
4576;BME280;2300;51.874;8.430;2023-06-22T09:46:45;100801.72;;;27.89;66.62
4576;BME280;2300;51.874;8.430;2023-06-22T09:49:13;100794.59;;;28.04;64.76
4576;BME280;2300;51.874;8.430;2023-06-22T09:51:40;100790.53;;;28.14;67.08
4576;BME280;2300;51.874;8.430;2023-06-22T09:54:06;100795.47;;;28.17;66.57
4576;BME280;2300;51.874;8.430;2023-06-22T09:56:32;100801.22;;;28.41;64.44
4576;BME280;2300;51.874;8.430;2023-06-22T09:58:59;100795.97;;;28.31;64.97
4576;BME280;2300;51.874;8.430;2023-06-22T10:01:25;100801.88;;;28.38;65.51
4576;BME280;2300;51.874;8.430;2023-06-22T10:03:52;100796.91;;;28.35;66.57
4576;BME280;2300;51.874;8.430;2023-06-22T10:06:22;100803.13;;;28.61;68.31
4576;BME280;2300;51.874;8.430;2023-06-22T10:08:50;100803.59;;;28.63;66.21
4576;BME280;2300;51.874;8.430;2023-06-22T10:11:16;100800.59;;;29.17;66.13
4576;BME280;2300;51.874;8.430;2023-06-22T10:13:43;100807.06;;;29.17;62.91
4576;BME280;2300;51.874;8.430;2023-06-22T10:16:10;100794.19;;;28.96;64.35
4576;BME280;2300;51.874;8.430;2023-06-22T10:18:37;100796.81;;;29.01;65.20
4576;BME280;2300;51.874;8.430;2023-06-22T10:21:03;100801.25;;;28.89;63.91
4576;BME280;2300;51.874;8.430;2023-06-22T10:23:31;100792.66;;;28.74;63.94
4576;BME280;2300;51.874;8.430;2023-06-22T10:25:57;100786.06;;;28.82;63.86
4576;BME280;2300;51.874;8.430;2023-06-22T10:28:24;100781.13;;;28.67;65.52
4576;BME280;2300;51.874;8.430;2023-06-22T10:30:50;100783.25;;;28.70;65.82
4576;BME280;2300;51.874;8.430;2023-06-22T10:33:17;100782.41;;;28.81;64.33
4576;BME280;2300;51.874;8.430;2023-06-22T10:35:44;100775.59;;;28.70;64.03
4576;BME280;2300;51.874;8.430;2023-06-22T10:38:10;100768.06;;;29.11;64.59
4576;BME280;2300;51.874;8.430;2023-06-22T10:40:38;100757.22;;;29.25;63.28
4576;BME280;2300;51.874;8.430;2023-06-22T10:43:05;100755.72;;;28.79;61.98
4576;BME280;2300;51.874;8.430;2023-06-22T10:45:32;100751.09;;;28.62;62.85
4576;BME280;2300;51.874;8.430;2023-06-22T10:47:58;100739.41;;;28.27;64.17
4576;BME280;2300;51.874;8.430;2023-06-22T10:50:25;100741.81;;;28.04;65.77
4576;BME280;2300;51.874;8.430;2023-06-22T10:52:52;100734.66;;;28.07;66.47
4576;BME280;2300;51.874;8.430;2023-06-22T10:55:18;100728.03;;;27.91;66.31
4576;BME280;2300;51.874;8.430;2023-06-22T10:57:46;100723.13;;;28.00;65.64
4576;BME280;2300;51.874;8.430;2023-06-22T11:00:14;100714.44;;;28.05;64.50
4576;BME280;2300;51.874;8.430;2023-06-22T11:02:41;100713.09;;;27.90;65.20
4576;BME280;2300;51.874;8.430;2023-06-22T11:05:08;100720.78;;;28.02;64.70
4576;BME280;2300;51.874;8.430;2023-06-22T11:07:34;100715.81;;;27.99;65.56
4576;BME280;2300;51.874;8.430;2023-06-22T11:10:00;100711.22;;;27.94;66.04
4576;BME280;2300;51.874;8.430;2023-06-22T11:12:27;100716.19;;;28.10;65.05
4576;BME280;2300;51.874;8.430;2023-06-22T11:14:55;100704.00;;;28.18;64.37
4576;BME280;2300;51.874;8.430;2023-06-22T11:17:22;100701.75;;;28.11;65.25
4576;BME280;2300;51.874;8.430;2023-06-22T11:19:48;100705.63;;;28.06;65.50
4576;BME280;2300;51.874;8.430;2023-06-22T11:22:15;100697.41;;;27.81;64.64
4576;BME280;2300;51.874;8.430;2023-06-22T11:24:42;100698.66;;;27.92;65.74
4576;BME280;2300;51.874;8.430;2023-06-22T11:27:08;100690.81;;;27.97;65.77
4576;BME280;2300;51.874;8.430;2023-06-22T11:29:35;100687.53;;;27.75;65.55
4576;BME280;2300;51.874;8.430;2023-06-22T11:32:05;100683.28;;;27.69;66.61
4576;BME280;2300;51.874;8.430;2023-06-22T11:34:31;100680.28;;;27.53;66.63
4576;BME280;2300;51.874;8.430;2023-06-22T11:36:58;100672.00;;;27.69;67.45
4576;BME280;2300;51.874;8.430;2023-06-22T11:39:24;100678.81;;;28.00;66.31
4576;BME280;2300;51.874;8.430;2023-06-22T11:41:51;100658.41;;;27.83;66.04
4576;BME280;2300;51.874;8.430;2023-06-22T11:44:18;100661.53;;;27.69;66.85
4576;BME280;2300;51.874;8.430;2023-06-22T11:46:44;100661.41;;;27.65;67.33
4576;BME280;2300;51.874;8.430;2023-06-22T11:49:12;100644.34;;;27.62;67.46
4576;BME280;2300;51.874;8.430;2023-06-22T11:51:38;100649.75;;;27.55;67.53
4576;BME280;2300;51.874;8.430;2023-06-22T11:54:05;100644.13;;;27.55;67.57
4576;BME280;2300;51.874;8.430;2023-06-22T11:56:33;100645.00;;;27.47;69.26
4576;BME280;2300;51.874;8.430;2023-06-22T11:58:59;100653.66;;;27.30;68.91
4576;BME280;2300;51.874;8.430;2023-06-22T12:01:26;100656.69;;;27.25;69.38
4576;BME280;2300;51.874;8.430;2023-06-22T12:03:52;100649.25;;;27.41;69.46
4576;BME280;2300;51.874;8.430;2023-06-22T12:06:20;100653.88;;;27.25;69.65
4576;BME280;2300;51.874;8.430;2023-06-22T12:08:46;100659.84;;;27.23;70.97
4576;BME280;2300;51.874;8.430;2023-06-22T12:11:13;100662.84;;;26.97;69.91
4576;BME280;2300;51.874;8.430;2023-06-22T12:13:40;100681.22;;;26.74;71.28
4576;BME280;2300;51.874;8.430;2023-06-22T12:16:06;100693.59;;;26.81;71.03
4576;BME280;2300;51.874;8.430;2023-06-22T12:18:33;100695.03;;;26.67;72.04
4576;BME280;2300;51.874;8.430;2023-06-22T12:20:59;100696.31;;;26.69;71.88
4576;BME280;2300;51.874;8.430;2023-06-22T12:23:27;100685.53;;;26.42;72.48
4576;BME280;2300;51.874;8.430;2023-06-22T12:25:53;100689.94;;;26.52;72.96
4576;BME280;2300;51.874;8.430;2023-06-22T12:28:20;100694.00;;;26.33;73.78
4576;BME280;2300;51.874;8.430;2023-06-22T12:30:48;100704.81;;;26.23;73.20
4576;BME280;2300;51.874;8.430;2023-06-22T12:33:15;100705.03;;;26.09;72.91
4576;BME280;2300;51.874;8.430;2023-06-22T12:35:43;100702.06;;;25.97;73.70
4576;BME280;2300;51.874;8.430;2023-06-22T12:38:10;100701.59;;;25.95;72.79
4576;BME280;2300;51.874;8.430;2023-06-22T12:40:38;100702.41;;;25.87;74.21
4576;BME280;2300;51.874;8.430;2023-06-22T12:43:04;100689.22;;;25.79;74.53
4576;BME280;2300;51.874;8.430;2023-06-22T12:45:31;100675.19;;;25.70;75.57
4576;BME280;2300;51.874;8.430;2023-06-22T12:47:58;100671.88;;;25.68;75.40
4576;BME280;2300;51.874;8.430;2023-06-22T12:50:26;100667.91;;;25.61;76.90
4576;BME280;2300;51.874;8.430;2023-06-22T12:52:52;100647.94;;;25.53;77.75
4576;BME280;2300;51.874;8.430;2023-06-22T12:55:19;100633.91;;;25.10;80.28
4576;BME280;2300;51.874;8.430;2023-06-22T12:57:47;100616.22;;;25.10;79.11
4576;BME280;2300;51.874;8.430;2023-06-22T13:00:14;100620.69;;;25.02;81.91
4576;BME280;2300;51.874;8.430;2023-06-22T13:02:40;100623.16;;;24.87;83.75
4576;BME280;2300;51.874;8.430;2023-06-22T13:05:08;100638.09;;;24.48;86.32
4576;BME280;2300;51.874;8.430;2023-06-22T13:07:34;100649.31;;;24.56;87.69
4576;BME280;2300;51.874;8.430;2023-06-22T13:10:01;100646.84;;;24.46;88.04